createdAt,value
2018-03-01T00:00:29.315Z,100976.20
2018-03-01T00:02:58.679Z,100986.92
2018-03-01T00:05:29.118Z,100986.36
2018-03-01T00:07:58.993Z,100981.93
2018-03-01T00:10:29.766Z,100984.70
2018-03-01T00:12:59.064Z,100983.09
2018-03-01T00:15:28.531Z,100990.36
2018-03-01T00:17:57.824Z,100996.03
2018-03-01T00:20:27.083Z,100989.50
2018-03-01T00:22:56.598Z,100995.50
2018-03-01T00:25:25.783Z,100995.06
2018-03-01T00:27:54.938Z,100998.52
2018-03-01T00:30:26.663Z,100995.97
2018-03-01T00:32:57.426Z,100994.36
2018-03-01T00:35:26.561Z,100989.97
2018-03-01T00:37:55.995Z,100995.13
2018-03-01T00:40:25.365Z,101005.59
2018-03-01T00:42:54.468Z,101005.60
2018-03-01T00:45:25.996Z,101004.38
2018-03-01T00:47:56.628Z,101002.16
2018-03-01T00:50:26.545Z,100997.42
2018-03-01T00:52:58.551Z,100994.39
2018-03-01T00:55:34.568Z,100991.86
2018-03-01T00:58:05.916Z,100999.22
2018-03-01T01:00:39.530Z,101010.05
2018-03-01T01:03:08.704Z,101013.69
2018-03-01T01:05:38.138Z,101024.45
2018-03-01T01:08:09.205Z,101017.14
2018-03-01T01:10:38.141Z,101019.80
2018-03-01T01:13:09.852Z,101028.55
2018-03-01T01:15:39.122Z,101030.66
2018-03-01T01:18:08.227Z,101037.41
2018-03-01T01:20:39.286Z,101035.38
2018-03-01T01:23:10.190Z,101036.55
2018-03-01T01:25:40.181Z,101035.54
2018-03-01T01:28:11.776Z,101036.14
2018-03-01T01:30:41.916Z,101041.97
2018-03-01T01:33:11.929Z,101045.70
2018-03-01T01:38:16.244Z,101056.50
2018-03-01T01:40:46.431Z,101051.78
2018-03-01T01:43:16.286Z,101047.20
2018-03-01T01:45:45.480Z,101051.73
2018-03-01T01:48:14.891Z,101051.16
2018-03-01T01:53:34.081Z,101062.46
2018-03-01T01:56:03.176Z,101061.94
2018-03-01T02:01:09.751Z,101064.43
2018-03-01T02:03:39.046Z,101074.89
2018-03-01T02:06:10.842Z,101081.46
2018-03-01T02:08:40.509Z,101080.89
2018-03-01T02:11:10.570Z,101083.27
2018-03-01T02:13:40.675Z,101077.89
2018-03-01T02:16:09.845Z,101084.98
2018-03-01T02:18:39.845Z,101089.03
2018-03-01T02:21:10.677Z,101097.13
2018-03-01T02:23:40.824Z,101090.97
2018-03-01T02:26:11.542Z,101088.92
2018-03-01T02:28:40.591Z,101088.80
2018-03-01T02:31:10.148Z,101081.76
2018-03-01T02:33:39.717Z,101085.21
2018-03-01T02:36:08.950Z,101083.82
2018-03-01T02:38:39.766Z,101084.92
2018-03-01T02:41:10.856Z,101076.58
2018-03-01T02:43:42.998Z,101091.84
2018-03-01T02:46:12.338Z,101089.86
2018-03-01T02:48:41.604Z,101084.72
2018-03-01T02:51:20.451Z,101082.59
2018-03-01T02:53:51.172Z,101073.63
2018-03-01T02:56:21.046Z,101065.22
2018-03-01T02:58:53.006Z,101072.56
2018-03-01T03:01:24.251Z,101083.08
2018-03-01T03:03:54.422Z,101084.85
2018-03-01T03:06:24.514Z,101088.03
2018-03-01T03:08:53.930Z,101095.25
2018-03-01T03:11:23.164Z,101082.20
2018-03-01T03:13:52.471Z,101093.31
2018-03-01T03:16:21.810Z,101091.67
2018-03-01T03:18:52.754Z,101094.08
2018-03-01T03:21:22.745Z,101099.27
2018-03-01T03:23:53.779Z,101099.49
2018-03-01T03:26:23.680Z,101097.63
2018-03-01T03:28:53.704Z,101101.44
2018-03-01T03:31:23.662Z,101104.48
2018-03-01T03:33:52.763Z,101094.78
2018-03-01T03:36:22.754Z,101093.66
2018-03-01T03:38:53.397Z,101093.27
2018-03-01T03:41:23.101Z,101094.31
2018-03-01T03:43:52.200Z,101106.59
2018-03-01T03:46:22.169Z,101101.13
2018-03-01T03:48:53.076Z,101099.27
2018-03-01T03:51:24.157Z,101091.77
2018-03-01T03:53:54.225Z,101097.38
2018-03-01T03:56:23.384Z,101102.70
2018-03-01T04:01:27.011Z,101093.53
2018-03-01T04:03:56.968Z,101096.06
2018-03-01T04:06:26.157Z,101105.67
2018-03-01T04:08:56.546Z,101109.08
2018-03-01T04:14:01.940Z,101111.27
2018-03-01T04:16:32.891Z,101116.42
2018-03-01T04:19:03.057Z,101118.59
2018-03-01T04:21:32.365Z,101119.91
2018-03-01T04:24:02.477Z,101114.74
2018-03-01T04:26:31.825Z,101128.81
2018-03-01T04:29:01.925Z,101125.36
2018-03-01T04:31:31.135Z,101119.09
2018-03-01T04:34:00.497Z,101091.67
2018-03-01T04:36:31.382Z,101117.03
2018-03-01T04:39:03.016Z,101113.43
2018-03-01T04:41:32.212Z,101110.72
2018-03-01T04:44:02.356Z,101116.17
2018-03-01T04:46:34.096Z,101114.57
2018-03-01T04:49:03.022Z,101112.80
2018-03-01T04:51:32.219Z,101128.43
2018-03-01T04:54:02.441Z,101122.89
2018-03-01T04:56:33.112Z,101124.27
2018-03-01T04:59:04.244Z,101116.78
2018-03-01T05:01:34.092Z,101122.17
2018-03-01T05:04:03.329Z,101132.03
2018-03-01T05:06:34.469Z,101124.05
2018-03-01T05:09:03.690Z,101119.72
2018-03-01T05:11:34.470Z,101120.53
2018-03-01T05:14:04.506Z,101131.55
2018-03-01T05:16:34.467Z,101135.93
2018-03-01T05:19:03.861Z,101121.63
2018-03-01T05:24:11.367Z,101119.03
2018-03-01T05:26:40.608Z,101120.08
2018-03-01T05:29:10.585Z,101121.34
2018-03-01T05:31:40.641Z,101120.99
2018-03-01T05:34:09.930Z,101128.79
2018-03-01T05:36:40.392Z,101131.37
2018-03-01T05:39:12.366Z,101125.07
2018-03-01T05:41:44.393Z,101124.03
2018-03-01T05:44:13.686Z,101117.80
2018-03-01T05:46:42.894Z,101119.89
2018-03-01T05:49:14.715Z,101128.36
2018-03-01T05:51:48.601Z,101125.91
2018-03-01T05:54:19.036Z,101116.78
2018-03-01T05:56:48.726Z,101119.77
2018-03-01T05:59:18.849Z,101116.23
2018-03-01T06:01:50.276Z,101110.78
2018-03-01T06:04:19.417Z,101105.41
2018-03-01T06:06:49.215Z,101102.97
2018-03-01T06:09:19.452Z,101092.67
2018-03-01T06:11:49.397Z,101095.03
2018-03-01T06:14:19.078Z,101093.38
2018-03-01T06:16:53.824Z,101084.13
2018-03-01T06:19:24.885Z,101076.94
2018-03-01T06:24:29.525Z,101077.66
2018-03-01T06:26:58.749Z,101083.96
2018-03-01T06:29:28.151Z,101074.25
2018-03-01T06:31:57.385Z,101072.96
2018-03-01T06:34:27.184Z,101075.20
2018-03-01T06:36:56.306Z,101065.56
2018-03-01T06:39:26.973Z,101071.66
2018-03-01T06:41:56.190Z,101078.28
2018-03-01T06:44:28.586Z,101081.86
2018-03-01T06:46:58.610Z,101068.92
2018-03-01T06:49:31.259Z,101071.03
2018-03-01T06:52:02.919Z,101077.81
2018-03-01T06:54:33.255Z,101101.06
2018-03-01T06:57:02.455Z,101081.25
2018-03-01T06:59:31.579Z,101094.25
2018-03-01T07:02:00.855Z,101097.24
2018-03-01T07:04:30.004Z,101098.09
2018-03-01T07:06:59.184Z,101108.39
2018-03-01T07:09:30.062Z,101098.37
2018-03-01T07:11:59.929Z,101106.14
2018-03-01T07:14:30.246Z,101096.71
2018-03-01T07:16:59.926Z,101105.81
2018-03-01T07:19:29.584Z,101112.98
2018-03-01T07:22:00.481Z,101117.47
2018-03-01T07:24:29.875Z,101115.50
2018-03-01T07:27:00.675Z,101116.67
2018-03-01T07:29:30.966Z,101120.47
2018-03-01T07:32:01.057Z,101114.84
2018-03-01T07:34:30.500Z,101110.89
2018-03-01T07:36:59.721Z,101110.52
2018-03-01T07:39:28.752Z,101109.89
2018-03-01T07:41:58.752Z,101112.14
2018-03-01T07:44:28.130Z,101115.44
2018-03-01T07:46:57.270Z,101117.09
2018-03-01T07:49:29.914Z,101119.48
2018-03-01T07:51:59.368Z,101105.28
2018-03-01T07:54:29.326Z,101109.11
2018-03-01T07:56:58.428Z,101113.67
2018-03-01T07:59:28.876Z,101105.77
2018-03-01T08:02:01.089Z,101104.21
2018-03-01T08:04:31.199Z,101105.33
2018-03-01T08:09:37.011Z,101106.72
2018-03-01T08:12:07.701Z,101113.71
2018-03-01T08:14:38.333Z,101114.44
2018-03-01T08:17:07.581Z,101107.30
2018-03-01T08:19:36.584Z,101113.75
2018-03-01T08:22:08.204Z,101114.44
2018-03-01T08:24:37.503Z,101117.23
2018-03-01T08:27:07.330Z,101111.11
2018-03-01T08:29:39.468Z,101103.87
2018-03-01T08:32:09.029Z,101105.07
2018-03-01T08:34:39.213Z,101110.14
2018-03-01T08:37:11.316Z,101109.95
2018-03-01T08:39:41.105Z,101116.20
2018-03-01T08:42:10.309Z,101106.94
2018-03-01T08:44:39.580Z,101106.95
2018-03-01T08:47:08.775Z,101117.39
2018-03-01T08:49:39.020Z,101115.06
2018-03-01T08:52:14.222Z,101119.08
2018-03-01T08:54:45.205Z,101115.69
2018-03-01T08:57:16.135Z,101118.28
2018-03-01T08:59:45.665Z,101115.86
2018-03-01T09:02:15.584Z,101115.00
2018-03-01T09:04:46.384Z,101117.05
2018-03-01T09:07:16.025Z,101117.51
2018-03-01T09:09:44.933Z,101121.11
2018-03-01T09:12:16.274Z,101129.64
2018-03-01T09:14:46.270Z,101136.35
2018-03-01T09:17:16.480Z,101134.86
2018-03-01T09:19:47.295Z,101141.91
2018-03-01T09:22:16.440Z,101140.78
2018-03-01T09:24:46.257Z,101142.17
2018-03-01T09:27:15.580Z,101143.62
2018-03-01T09:29:44.809Z,101136.29
2018-03-01T09:32:15.659Z,101135.25
2018-03-01T09:34:46.718Z,101134.06
2018-03-01T09:37:15.628Z,101129.42
2018-03-01T09:39:44.908Z,101131.95
2018-03-01T09:42:14.063Z,101121.39
2018-03-01T09:44:43.328Z,101129.93
2018-03-01T09:47:12.214Z,101121.72
2018-03-01T09:49:42.398Z,101110.11
2018-03-01T09:52:12.494Z,101101.79
2018-03-01T09:54:44.273Z,101097.41
2018-03-01T09:57:13.636Z,101090.36
2018-03-01T09:59:42.915Z,101089.45
2018-03-01T10:02:12.134Z,101086.19
2018-03-01T10:04:41.955Z,101081.88
2018-03-01T10:07:11.319Z,101077.17
2018-03-01T10:09:40.743Z,101071.52
2018-03-01T10:12:10.160Z,101066.56
2018-03-01T10:14:39.439Z,101064.34
2018-03-01T10:17:09.370Z,101058.38
2018-03-01T10:19:38.928Z,101052.77
2018-03-01T10:22:10.640Z,101056.55
2018-03-01T10:24:40.700Z,101054.48
2018-03-01T10:27:10.689Z,101053.16
2018-03-01T10:29:45.290Z,101045.95
2018-03-01T10:32:14.524Z,101048.75
2018-03-01T10:34:44.485Z,101036.27
2018-03-01T10:37:14.493Z,101037.03
2018-03-01T10:39:44.493Z,101031.18
2018-03-01T10:42:13.848Z,101030.11
2018-03-01T10:44:43.709Z,101020.63
2018-03-01T10:47:13.829Z,101025.14
2018-03-01T10:49:43.980Z,101014.70
2018-03-01T10:52:16.406Z,101003.61
2018-03-01T10:54:52.324Z,101008.58
2018-03-01T10:59:56.658Z,100994.69
2018-03-01T11:02:27.393Z,100980.14
2018-03-01T11:04:58.245Z,100994.31
2018-03-01T11:07:27.335Z,100994.03
2018-03-01T11:10:00.989Z,100991.77
2018-03-01T11:12:31.239Z,100981.07
2018-03-01T11:15:07.550Z,100982.27
2018-03-01T11:17:37.529Z,100977.13
2018-03-01T11:20:09.013Z,100971.75
2018-03-01T11:22:38.140Z,100973.52
2018-03-01T11:25:08.218Z,100968.95
2018-03-01T11:27:38.890Z,100963.64
2018-03-01T11:30:09.014Z,100964.49
2018-03-01T11:32:38.570Z,100957.89
2018-03-01T11:35:07.818Z,100960.14
2018-03-01T11:37:39.570Z,100964.14
2018-03-01T11:40:09.600Z,100956.20
2018-03-01T11:42:39.838Z,100949.46
2018-03-01T11:45:09.675Z,100956.89
2018-03-01T11:47:39.385Z,100950.97
2018-03-01T11:50:08.578Z,100954.67
2018-03-01T11:52:42.864Z,100949.22
2018-03-01T11:55:13.815Z,100946.58
2018-03-01T11:57:42.913Z,100943.09
2018-03-01T12:00:13.079Z,100943.98
2018-03-01T12:02:42.250Z,100936.22
2018-03-01T12:08:12.432Z,100939.76
2018-03-01T12:10:42.102Z,100939.45
2018-03-01T12:13:11.202Z,100942.12
2018-03-01T12:15:43.164Z,100936.22
2018-03-01T12:18:12.014Z,100933.05
2018-03-01T12:20:41.388Z,100932.20
2018-03-01T12:23:12.132Z,100927.70
2018-03-01T12:25:41.263Z,100929.38
2018-03-01T12:28:11.208Z,100925.70
2018-03-01T12:30:42.016Z,100927.09
2018-03-01T12:33:12.069Z,100922.15
2018-03-01T12:35:41.175Z,100921.25
2018-03-01T12:38:10.379Z,100926.73
2018-03-01T12:40:40.437Z,100919.35
2018-03-01T12:43:09.442Z,100925.05
2018-03-01T12:45:38.699Z,100937.22
2018-03-01T12:48:07.835Z,100927.20
2018-03-01T12:50:37.930Z,100927.39
2018-03-01T12:53:09.146Z,100928.05
2018-03-01T12:55:39.105Z,100927.28
2018-03-01T12:58:12.753Z,100926.18
2018-03-01T13:03:10.442Z,100915.79
2018-03-01T13:05:43.348Z,100909.23
2018-03-01T13:08:12.561Z,100907.92
2018-03-01T13:10:42.191Z,100894.69
2018-03-01T13:13:11.385Z,100895.86
2018-03-01T13:15:41.500Z,100888.45
2018-03-01T13:18:13.944Z,100894.90
2018-03-01T13:20:43.276Z,100893.61
2018-03-01T13:23:12.398Z,100890.59
2018-03-01T13:25:43.042Z,100877.00
2018-03-01T13:28:12.006Z,100878.64
2018-03-01T13:30:44.278Z,100878.52
2018-03-01T13:33:33.238Z,100876.89
2018-03-01T13:36:03.223Z,100862.84
2018-03-01T13:38:33.083Z,100859.41
2018-03-01T13:41:03.021Z,100858.88
2018-03-01T13:46:51.662Z,100862.45
2018-03-01T13:49:21.814Z,100855.78
2018-03-01T13:51:50.913Z,100853.70
2018-03-01T13:54:20.242Z,100837.05
2018-03-01T13:56:49.417Z,100841.86
2018-03-01T13:59:19.399Z,100845.17
2018-03-01T14:01:49.171Z,100846.98
2018-03-01T14:04:19.416Z,100841.38
2018-03-01T14:09:51.678Z,100836.52
2018-03-01T14:12:36.282Z,100837.81
2018-03-01T14:15:06.459Z,100826.86
2018-03-01T14:17:50.443Z,100830.25
2018-03-01T14:20:37.201Z,100829.98
2018-03-01T14:26:08.862Z,100822.26
2018-03-01T14:28:43.782Z,100814.30
2018-03-01T14:31:15.426Z,100807.17
2018-03-01T14:33:45.742Z,100803.28
2018-03-01T14:36:15.801Z,100801.24
2018-03-01T14:38:45.168Z,100806.44
2018-03-01T14:41:14.278Z,100802.37
2018-03-01T14:46:20.272Z,100803.41
2018-03-01T14:48:49.487Z,100807.65
2018-03-01T14:51:18.778Z,100804.00
2018-03-01T14:53:49.612Z,100799.13
2018-03-01T14:56:20.179Z,100799.75
2018-03-01T14:58:50.022Z,100796.50
2018-03-01T15:01:19.573Z,100791.39
2018-03-01T15:03:48.661Z,100788.27
2018-03-01T15:06:17.862Z,100791.56
2018-03-01T15:08:48.289Z,100787.12
2018-03-01T15:11:22.982Z,100802.67
2018-03-01T15:13:53.043Z,100794.27
2018-03-01T15:16:23.218Z,100792.17
2018-03-01T15:18:53.293Z,100796.48
2018-03-01T15:21:22.542Z,100802.63
2018-03-01T15:23:51.733Z,100811.27
2018-03-01T15:26:21.987Z,100803.95
2018-03-01T15:28:51.049Z,100802.06
2018-03-01T15:31:20.115Z,100798.36
2018-03-01T15:36:25.686Z,100799.78
2018-03-01T15:38:57.318Z,100794.55
2018-03-01T15:41:27.628Z,100793.41
2018-03-01T15:43:57.883Z,100798.50
2018-03-01T15:46:27.808Z,100801.91
2018-03-01T15:51:31.943Z,100806.36
2018-03-01T15:54:01.248Z,100805.42
2018-03-01T15:56:32.422Z,100800.75
2018-03-01T15:59:02.368Z,100804.60
2018-03-01T16:01:33.018Z,100802.87
2018-03-01T16:04:03.794Z,100801.02
2018-03-01T16:06:33.067Z,100803.64
2018-03-01T16:09:02.378Z,100789.47
2018-03-01T16:11:32.697Z,100793.52
2018-03-01T16:14:01.964Z,100791.61
2018-03-01T16:16:30.952Z,100785.66
2018-03-01T16:19:02.643Z,100783.44
2018-03-01T16:21:32.727Z,100782.48
2018-03-01T16:24:01.719Z,100787.96
2018-03-01T16:26:31.772Z,100784.11
2018-03-01T16:29:02.424Z,100785.28
2018-03-01T16:31:31.435Z,100785.48
2018-03-01T16:34:01.557Z,100792.07
2018-03-01T16:36:30.786Z,100787.26
2018-03-01T16:38:59.884Z,100782.31
2018-03-01T16:44:03.750Z,100783.34
2018-03-01T16:46:34.849Z,100778.33
2018-03-01T16:49:09.953Z,100781.13
2018-03-01T16:51:39.088Z,100774.27
2018-03-01T16:54:09.173Z,100774.98
2018-03-01T16:56:40.846Z,100762.63
2018-03-01T16:59:10.061Z,100761.75
2018-03-01T17:01:39.923Z,100752.52
2018-03-01T17:04:10.350Z,100747.61
2018-03-01T17:06:40.625Z,100740.24
2018-03-01T17:09:09.938Z,100737.25
2018-03-01T17:11:39.033Z,100729.38
2018-03-01T17:14:09.797Z,100722.12
2018-03-01T17:16:39.108Z,100729.02
2018-03-01T17:19:08.303Z,100720.62
2018-03-01T17:21:38.286Z,100707.33
2018-03-01T17:24:08.434Z,100707.72
2018-03-01T17:26:38.478Z,100711.11
2018-03-01T17:29:10.033Z,100704.70
2018-03-01T17:31:41.644Z,100701.28
2018-03-01T17:34:11.755Z,100695.89
2018-03-01T17:36:41.487Z,100691.84
2018-03-01T17:41:45.952Z,100690.04
2018-03-01T17:44:18.038Z,100690.67
2018-03-01T17:49:29.203Z,100679.34
2018-03-01T17:52:01.313Z,100678.91
2018-03-01T17:54:30.537Z,100681.02
2018-03-01T17:56:59.568Z,100678.86
2018-03-01T17:59:28.868Z,100675.98
2018-03-01T18:01:58.229Z,100669.18
2018-03-01T18:04:28.862Z,100657.52
2018-03-01T18:06:59.659Z,100652.73
2018-03-01T18:09:30.556Z,100650.80
2018-03-01T18:12:00.651Z,100649.41
2018-03-01T18:14:30.091Z,100650.42
2018-03-01T18:16:59.387Z,100647.23
2018-03-01T18:22:05.298Z,100654.45
2018-03-01T18:24:35.283Z,100651.15
2018-03-01T18:27:06.450Z,100651.11
2018-03-01T18:29:35.542Z,100652.83
2018-03-01T18:32:05.397Z,100647.28
2018-03-01T18:34:34.775Z,100651.48
2018-03-01T18:37:04.153Z,100656.14
2018-03-01T18:39:33.263Z,100658.77
2018-03-01T18:42:05.064Z,100660.37
2018-03-01T18:44:34.705Z,100651.67
2018-03-01T18:47:04.767Z,100652.30
2018-03-01T18:49:36.982Z,100644.61
2018-03-01T18:52:06.164Z,100653.47
2018-03-01T18:54:36.423Z,100652.22
2018-03-01T18:57:06.845Z,100638.94
2018-03-01T18:59:36.452Z,100638.34
2018-03-01T19:02:06.545Z,100636.73
2018-03-01T19:04:37.365Z,100636.73
2018-03-01T19:07:07.536Z,100631.80
2018-03-01T19:09:37.411Z,100633.45
2018-03-01T19:12:09.324Z,100632.48
2018-03-01T19:14:38.467Z,100629.01
2018-03-01T19:17:09.145Z,100635.52
2018-03-01T19:22:13.995Z,100627.00
2018-03-01T19:24:44.235Z,100618.77
2018-03-01T19:27:17.737Z,100620.48
2018-03-01T19:29:46.872Z,100611.92
2018-03-01T19:32:16.807Z,100604.70
2018-03-01T19:34:46.865Z,100608.35
2018-03-01T19:37:16.766Z,100593.52
2018-03-01T19:39:49.464Z,100599.76
2018-03-01T19:42:18.552Z,100599.19
2018-03-01T19:44:47.732Z,100602.29
2018-03-01T19:47:18.536Z,100592.59
2018-03-01T19:49:49.288Z,100595.71
2018-03-01T19:52:18.670Z,100590.26
2018-03-01T19:54:47.870Z,100591.69
2018-03-01T19:57:19.647Z,100585.98
2018-03-01T19:59:48.775Z,100591.92
2018-03-01T20:02:17.979Z,100583.30
2018-03-01T20:04:47.031Z,100589.69
2018-03-01T20:07:16.465Z,100579.86
2018-03-01T20:09:45.759Z,100580.97
2018-03-01T20:12:14.973Z,100579.27
2018-03-01T20:14:45.142Z,100582.42
2018-03-01T20:17:14.741Z,100578.51
2018-03-01T20:19:46.767Z,100580.70
2018-03-01T20:22:17.384Z,100576.49
2018-03-01T20:24:46.707Z,100573.86
2018-03-01T20:29:51.057Z,100558.34
2018-03-01T20:32:21.031Z,100543.84
2018-03-01T20:34:50.241Z,100547.82
2018-03-01T20:37:19.547Z,100548.55
2018-03-01T20:39:49.109Z,100550.00
2018-03-01T20:42:18.637Z,100549.09
2018-03-01T20:44:48.222Z,100543.38
2018-03-01T20:47:17.305Z,100535.28
2018-03-01T20:52:21.274Z,100529.70
2018-03-01T20:54:52.949Z,100520.44
2018-03-01T20:57:23.015Z,100531.64
2018-03-01T20:59:52.914Z,100534.88
2018-03-01T21:02:22.035Z,100518.62
2018-03-01T21:04:52.935Z,100516.47
2018-03-01T21:07:22.070Z,100513.89
2018-03-01T21:09:51.690Z,100498.48
2018-03-01T21:12:21.510Z,100499.41
2018-03-01T21:14:50.687Z,100499.05
2018-03-01T21:17:19.940Z,100491.20
2018-03-01T21:19:49.892Z,100488.52
2018-03-01T21:22:19.951Z,100476.93
2018-03-01T21:24:49.229Z,100488.31
2018-03-01T21:27:18.978Z,100477.00
2018-03-01T21:29:48.043Z,100480.09
2018-03-01T21:32:18.310Z,100474.77
2018-03-01T21:34:50.156Z,100468.49
2018-03-01T21:37:19.323Z,100468.25
2018-03-01T21:39:48.443Z,100456.79
2018-03-01T21:42:17.772Z,100461.42
2018-03-01T21:44:48.548Z,100463.72
2018-03-01T21:47:17.748Z,100460.42
2018-03-01T21:49:48.620Z,100457.19
2018-03-01T21:52:18.681Z,100447.63
2018-03-01T21:54:48.630Z,100461.24
2018-03-01T21:57:20.385Z,100459.59
2018-03-01T21:59:56.035Z,100463.20
2018-03-01T22:02:28.021Z,100454.73
2018-03-01T22:04:57.457Z,100449.92
2018-03-01T22:07:27.255Z,100440.45
2018-03-01T22:09:57.100Z,100440.03
2018-03-01T22:12:26.338Z,100442.30
2018-03-01T22:14:55.459Z,100441.62
2018-03-01T22:17:25.371Z,100434.58
2018-03-01T22:19:55.201Z,100421.94
2018-03-01T22:22:24.172Z,100419.72
2018-03-01T22:24:53.372Z,100420.73
2018-03-01T22:27:22.482Z,100420.88
2018-03-01T22:29:51.607Z,100417.23
2018-03-01T22:32:21.031Z,100410.78
2018-03-01T22:34:50.283Z,100417.80
2018-03-01T22:37:19.388Z,100412.46
2018-03-01T22:39:50.292Z,100412.91
2018-03-01T22:42:19.300Z,100413.42
2018-03-01T22:44:48.501Z,100409.02
2018-03-01T22:47:18.450Z,100414.19
2018-03-01T22:49:48.220Z,100405.77
2018-03-01T22:52:17.287Z,100409.55
2018-03-01T22:54:47.258Z,100409.55
2018-03-01T22:57:18.879Z,100401.73
2018-03-01T22:59:49.762Z,100401.00
2018-03-01T23:02:18.892Z,100398.30
2018-03-01T23:04:48.097Z,100400.56
2018-03-01T23:07:17.205Z,100390.45
2018-03-01T23:09:46.541Z,100384.39
2018-03-01T23:12:15.628Z,100385.08
2018-03-01T23:14:45.634Z,100386.72
2018-03-01T23:17:15.776Z,100381.44
2018-03-01T23:19:44.772Z,100380.89
2018-03-01T23:22:14.670Z,100383.80
2018-03-01T23:24:44.662Z,100371.19
2018-03-01T23:27:13.781Z,100370.84
2018-03-01T23:29:42.884Z,100365.17
2018-03-01T23:32:11.840Z,100353.56
2018-03-01T23:34:41.036Z,100352.83
2018-03-01T23:37:10.202Z,100349.52
2018-03-01T23:39:39.347Z,100347.39
2018-03-01T23:42:08.434Z,100350.30
2018-03-01T23:44:41.611Z,100346.79
2018-03-01T23:47:10.790Z,100332.77
2018-03-01T23:49:40.034Z,100331.19
2018-03-01T23:52:09.316Z,100334.53
2018-03-01T23:54:39.645Z,100336.66
2018-03-01T23:57:08.670Z,100338.11
2018-03-01T23:59:38.997Z,100335.19
